createdAt,value
2023-03-21T00:00:33.950Z,7.70
2023-03-21T00:03:00.572Z,7.38
2023-03-21T00:05:27.050Z,8.63
2023-03-21T00:07:53.641Z,8.18
2023-03-21T00:10:32.982Z,7.97
2023-03-21T00:13:05.701Z,8.13
2023-03-21T00:15:42.651Z,8.55
2023-03-21T00:18:15.800Z,8.35
2023-03-21T00:20:47.329Z,7.45
2023-03-21T00:23:13.739Z,8.43
2023-03-21T00:25:40.314Z,7.88
2023-03-21T00:28:08.556Z,8.13
2023-03-21T00:30:35.412Z,8.02
2023-03-21T00:33:08.952Z,8.88
2023-03-21T00:36:12.467Z,7.68
2023-03-21T00:38:36.943Z,8.13
2023-03-21T00:41:17.690Z,8.07
2023-03-21T00:43:47.710Z,7.82
2023-03-21T00:46:14.220Z,8.40
2023-03-21T00:48:40.579Z,8.65
2023-03-21T00:51:21.412Z,8.43
2023-03-21T00:53:47.836Z,7.80
2023-03-21T00:56:14.161Z,8.50
2023-03-21T00:58:40.670Z,8.82
2023-03-21T01:01:09.525Z,8.55
2023-03-21T01:03:42.597Z,8.15
2023-03-21T01:06:13.747Z,8.30
2023-03-21T01:08:58.360Z,9.57
2023-03-21T01:11:28.336Z,9.00
2023-03-21T01:14:07.308Z,8.70
2023-03-21T01:16:37.786Z,8.95
2023-03-21T01:19:09.293Z,8.93
2023-03-21T01:21:41.190Z,9.07
2023-03-21T01:24:07.924Z,8.55
2023-03-21T01:26:34.453Z,9.20
2023-03-21T01:29:00.864Z,8.98
2023-03-21T01:31:27.287Z,8.13
2023-03-21T01:33:53.866Z,8.57
2023-03-21T01:36:23.988Z,9.32
2023-03-21T01:38:51.761Z,8.82
2023-03-21T01:41:41.897Z,8.60
2023-03-21T01:44:15.508Z,9.73
2023-03-21T01:47:03.647Z,8.90
2023-03-21T01:49:40.779Z,9.15
2023-03-21T01:52:23.549Z,9.00
2023-03-21T01:54:55.384Z,9.38
2023-03-21T01:57:40.394Z,9.60
2023-03-21T02:00:12.842Z,9.13
2023-03-21T02:02:58.238Z,9.18
2023-03-21T02:05:38.807Z,9.73
2023-03-21T02:08:05.584Z,8.90
2023-03-21T02:10:32.858Z,8.90
2023-03-21T02:13:09.319Z,9.48
2023-03-21T02:15:43.947Z,9.45
2023-03-21T02:18:33.319Z,9.15
2023-03-21T02:21:11.862Z,9.68
2023-03-21T02:24:12.576Z,9.30
2023-03-21T02:27:04.305Z,9.15
2023-03-21T02:29:58.988Z,9.48
2023-03-21T02:32:48.694Z,9.30
2023-03-21T02:35:23.906Z,8.95
2023-03-21T02:38:00.785Z,9.65
2023-03-21T02:40:38.067Z,8.93
2023-03-21T02:43:22.515Z,9.73
2023-03-21T02:45:57.939Z,9.32
2023-03-21T02:48:50.574Z,9.55
2023-03-21T02:51:21.076Z,9.38
2023-03-21T02:54:13.010Z,9.75
2023-03-21T02:56:41.370Z,9.65
2023-03-21T02:59:08.807Z,9.68
2023-03-21T03:01:35.919Z,9.65
2023-03-21T03:04:02.499Z,9.63
2023-03-21T03:06:47.779Z,9.65
2023-03-21T03:09:32.380Z,9.95
2023-03-21T03:12:16.575Z,9.77
2023-03-21T03:15:05.139Z,10.52
2023-03-21T03:17:52.657Z,9.85
2023-03-21T03:20:36.576Z,10.18
2023-03-21T03:23:25.999Z,9.27
2023-03-21T03:25:58.399Z,10.50
2023-03-21T03:28:35.508Z,10.48
2023-03-21T03:31:09.278Z,10.15
2023-03-21T03:33:40.837Z,10.13
2023-03-21T03:36:21.500Z,10.30
2023-03-21T03:38:56.322Z,10.80
2023-03-21T03:41:26.772Z,9.73
2023-03-21T03:43:56.346Z,10.80
2023-03-21T03:46:33.270Z,10.68
2023-03-21T03:49:11.938Z,10.00
2023-03-21T03:52:02.963Z,10.70
2023-03-21T03:54:38.340Z,11.40
2023-03-21T03:57:06.594Z,10.98
2023-03-21T03:59:37.225Z,11.48
2023-03-21T04:02:04.750Z,11.60
2023-03-21T04:04:31.731Z,12.98
2023-03-21T04:06:58.376Z,12.60
2023-03-21T04:09:42.704Z,12.55
2023-03-21T04:12:10.460Z,12.88
2023-03-21T04:14:44.479Z,12.27
2023-03-21T04:17:12.065Z,12.10
2023-03-21T04:19:38.502Z,13.02
2023-03-21T04:22:04.842Z,12.63
2023-03-21T04:24:33.781Z,12.10
2023-03-21T04:27:00.851Z,12.30
2023-03-21T04:29:29.550Z,12.20
2023-03-21T04:31:56.250Z,11.95
2023-03-21T04:34:23.990Z,11.48
2023-03-21T04:36:50.869Z,11.93
2023-03-21T04:39:18.300Z,13.63
2023-03-21T04:41:46.252Z,13.30
2023-03-21T04:44:14.409Z,12.57
2023-03-21T04:46:41.767Z,12.35
2023-03-21T04:49:08.311Z,13.57
2023-03-21T04:51:35.854Z,13.20
2023-03-21T04:54:02.316Z,12.10
2023-03-21T04:56:33.787Z,12.30
2023-03-21T04:59:09.718Z,12.20
2023-03-21T05:04:04.401Z,11.73
2023-03-21T05:06:30.792Z,12.50
2023-03-21T05:09:01.664Z,12.82
2023-03-21T05:11:32.255Z,13.07
2023-03-21T05:13:59.534Z,13.18
2023-03-21T05:16:30.354Z,13.40
2023-03-21T05:18:59.071Z,13.23
2023-03-21T05:21:29.339Z,13.40
2023-03-21T05:23:58.210Z,12.93
2023-03-21T05:26:25.115Z,13.80
2023-03-21T05:28:51.481Z,14.32
2023-03-21T05:31:19.258Z,14.02
2023-03-21T05:33:46.506Z,15.23
2023-03-21T05:36:13.813Z,14.60
2023-03-21T05:38:45.665Z,15.18
2023-03-21T05:41:14.004Z,14.70
2023-03-21T05:43:40.554Z,15.65
2023-03-21T05:46:07.614Z,15.65
2023-03-21T05:48:34.653Z,15.25
2023-03-21T05:51:01.984Z,15.55
2023-03-21T05:53:28.350Z,16.33
2023-03-21T05:55:54.771Z,16.65
2023-03-21T05:58:21.122Z,16.63
2023-03-21T06:00:47.623Z,16.38
2023-03-21T06:03:15.286Z,16.65
2023-03-21T06:05:41.639Z,17.08
2023-03-21T06:08:08.003Z,15.95
2023-03-21T06:10:34.404Z,15.82
2023-03-21T06:13:00.916Z,16.98
2023-03-21T06:15:27.364Z,16.45
2023-03-21T06:17:53.788Z,16.25
2023-03-21T06:20:20.147Z,16.67
2023-03-21T06:22:46.548Z,15.95
2023-03-21T06:25:12.921Z,15.77
2023-03-21T06:27:39.360Z,16.27
2023-03-21T06:30:06.780Z,15.73
2023-03-21T06:32:33.129Z,14.60
2023-03-21T06:34:59.581Z,15.27
2023-03-21T06:37:28.662Z,15.27
2023-03-21T06:39:55.673Z,15.70
2023-03-21T06:42:22.197Z,15.93
2023-03-21T06:44:48.753Z,14.73
2023-03-21T06:47:15.810Z,14.60
2023-03-21T06:49:43.636Z,14.75
2023-03-21T06:52:10.867Z,15.00
2023-03-21T06:54:37.344Z,15.38
2023-03-21T06:57:03.696Z,15.55
2023-03-21T06:59:30.129Z,15.27
2023-03-21T07:01:56.777Z,14.77
2023-03-21T07:04:23.199Z,14.13
2023-03-21T07:06:49.645Z,14.35
2023-03-21T07:09:17.910Z,14.80
2023-03-21T07:11:44.269Z,14.68
2023-03-21T07:14:10.595Z,15.15
2023-03-21T07:16:37.110Z,16.25
2023-03-21T07:19:04.300Z,13.90
2023-03-21T07:21:31.182Z,15.90
2023-03-21T07:23:57.696Z,13.40
2023-03-21T07:26:24.043Z,14.10
2023-03-21T07:28:50.508Z,13.85
2023-03-21T07:31:17.682Z,14.48
2023-03-21T07:33:44.082Z,14.32
2023-03-21T07:36:12.978Z,13.40
2023-03-21T07:38:41.026Z,12.93
2023-03-21T07:41:07.696Z,12.68
2023-03-21T07:43:34.758Z,13.30
2023-03-21T07:46:02.781Z,12.63
2023-03-21T07:48:29.813Z,11.75
2023-03-21T07:50:56.397Z,12.48
2023-03-21T07:53:23.107Z,12.52
2023-03-21T07:55:55.581Z,11.88
2023-03-21T07:58:23.401Z,12.13
2023-03-21T08:00:49.997Z,11.82
2023-03-21T08:03:16.769Z,11.38
2023-03-21T08:05:44.165Z,11.13
2023-03-21T08:08:11.001Z,11.30
2023-03-21T08:10:37.408Z,11.40
2023-03-21T08:13:04.146Z,11.30
2023-03-21T08:15:31.403Z,11.27
2023-03-21T08:17:59.369Z,11.18
2023-03-21T08:20:25.827Z,11.20
2023-03-21T08:22:52.332Z,10.82
2023-03-21T08:25:22.386Z,10.57
2023-03-21T08:27:49.266Z,10.60
2023-03-21T08:30:18.937Z,10.70
2023-03-21T08:32:45.617Z,10.90
2023-03-21T08:35:13.549Z,10.95
2023-03-21T08:37:41.303Z,10.68
2023-03-21T08:40:13.665Z,11.23
2023-03-21T08:42:41.433Z,10.40
2023-03-21T08:45:09.487Z,10.63
2023-03-21T08:47:36.039Z,10.55
2023-03-21T08:50:03.775Z,10.57
2023-03-21T08:52:30.255Z,10.60
2023-03-21T08:54:56.593Z,10.82
2023-03-21T08:57:23.171Z,10.70
2023-03-21T08:59:49.657Z,10.88
2023-03-21T09:02:17.392Z,10.32
2023-03-21T09:04:44.915Z,10.20
2023-03-21T09:07:17.073Z,10.45
2023-03-21T09:09:43.756Z,10.15
2023-03-21T09:12:11.257Z,9.82
2023-03-21T09:14:37.725Z,10.32
2023-03-21T09:17:04.197Z,9.55
2023-03-21T09:19:31.891Z,9.98
2023-03-21T09:21:58.699Z,10.00
2023-03-21T09:24:26.658Z,10.10
2023-03-21T09:26:53.197Z,10.35
2023-03-21T09:29:21.322Z,10.40
2023-03-21T09:31:48.329Z,10.73
2023-03-21T09:34:15.742Z,9.52
2023-03-21T09:36:44.122Z,9.88
2023-03-21T09:39:15.839Z,9.27
2023-03-21T09:41:57.839Z,8.90
2023-03-21T09:44:55.563Z,9.68
2023-03-21T09:47:34.695Z,9.40
2023-03-21T09:50:14.458Z,9.77
2023-03-21T09:53:01.079Z,9.10
2023-03-21T09:55:40.269Z,10.43
2023-03-21T09:58:09.894Z,9.25
2023-03-21T10:00:40.214Z,9.13
2023-03-21T10:03:20.186Z,8.48
2023-03-21T10:05:48.507Z,8.55
2023-03-21T10:08:27.169Z,9.10
2023-03-21T10:11:03.645Z,8.93
2023-03-21T10:13:34.055Z,8.00
2023-03-21T10:16:06.566Z,8.63
2023-03-21T10:18:33.373Z,8.57
2023-03-21T10:21:01.134Z,8.98
2023-03-21T10:23:41.881Z,8.48
2023-03-21T10:26:09.388Z,7.88
2023-03-21T10:28:52.442Z,8.60
2023-03-21T10:31:25.422Z,8.13
2023-03-21T10:33:54.935Z,8.48
2023-03-21T10:36:29.091Z,8.40
2023-03-21T10:39:16.070Z,8.65
2023-03-21T10:41:43.381Z,7.57
2023-03-21T10:44:16.693Z,8.75
2023-03-21T10:46:54.903Z,8.35
2023-03-21T10:49:21.730Z,8.23
2023-03-21T10:52:04.917Z,7.82
2023-03-21T10:54:35.541Z,8.02
2023-03-21T10:57:11.834Z,7.95
2023-03-21T10:59:49.353Z,9.05
2023-03-21T11:02:26.358Z,7.60
2023-03-21T11:04:55.645Z,8.43
2023-03-21T11:07:25.406Z,7.78
2023-03-21T11:09:58.961Z,7.88
2023-03-21T11:12:39.765Z,7.32
2023-03-21T11:15:15.283Z,7.60
2023-03-21T11:17:42.073Z,8.00
2023-03-21T11:20:11.327Z,8.10
2023-03-21T11:22:43.741Z,7.57
2023-03-21T11:25:22.887Z,7.90
2023-03-21T11:28:21.143Z,7.10
2023-03-21T11:30:56.709Z,7.07
2023-03-21T11:33:31.781Z,7.07
2023-03-21T11:39:49.918Z,6.50
2023-03-21T11:45:15.214Z,6.70
2023-03-21T11:47:42.054Z,6.57
2023-03-21T11:50:34.405Z,7.13
2023-03-21T11:53:20.842Z,6.85
2023-03-21T11:59:04.859Z,6.35
2023-03-21T12:01:40.343Z,5.80
2023-03-21T12:04:31.888Z,6.50
2023-03-21T12:07:26.305Z,6.93
2023-03-21T12:10:01.631Z,6.63
2023-03-21T12:12:42.049Z,7.38
2023-03-21T12:15:55.602Z,6.53
2023-03-21T12:18:58.879Z,7.40
2023-03-21T12:22:03.067Z,7.57
2023-03-21T12:24:38.412Z,7.72
2023-03-21T12:27:36.945Z,7.70
2023-03-21T12:30:23.715Z,8.57
2023-03-21T12:33:02.001Z,7.88
2023-03-21T12:35:42.318Z,8.45
2023-03-21T12:38:28.423Z,8.85
2023-03-21T12:41:03.858Z,8.40
2023-03-21T12:43:55.657Z,7.90
2023-03-21T12:46:40.575Z,8.18
2023-03-21T12:49:18.126Z,8.65
2023-03-21T12:51:48.645Z,8.52
2023-03-21T12:54:25.131Z,8.13
2023-03-21T12:57:28.745Z,7.70
2023-03-21T13:00:13.887Z,7.15
2023-03-21T13:02:55.436Z,7.90
2023-03-21T13:05:33.407Z,8.00
2023-03-21T13:08:12.198Z,7.30
2023-03-21T13:10:40.246Z,7.25
2023-03-21T13:13:37.666Z,8.45
2023-03-21T13:16:33.324Z,7.53
2023-03-21T13:19:18.222Z,7.28
2023-03-21T13:22:07.200Z,7.05
2023-03-21T13:25:07.493Z,6.88
2023-03-21T13:27:36.624Z,6.90
2023-03-21T13:30:19.317Z,6.20
2023-03-21T13:32:49.706Z,6.20
2023-03-21T13:35:16.479Z,5.68
2023-03-21T13:37:51.857Z,5.45
2023-03-21T13:40:42.772Z,5.57
2023-03-21T13:43:31.690Z,5.15
2023-03-21T13:46:06.364Z,4.90
2023-03-21T13:48:59.745Z,4.68
2023-03-21T13:51:29.376Z,4.75
2023-03-21T13:54:02.966Z,4.10
2023-03-21T13:56:30.643Z,3.92
2023-03-21T13:59:03.359Z,4.60
2023-03-21T14:01:39.367Z,4.38
2023-03-21T14:04:16.644Z,4.50
2023-03-21T14:06:51.284Z,4.47
2023-03-21T14:09:36.138Z,4.45
2023-03-21T14:12:08.078Z,3.88
2023-03-21T14:14:41.812Z,3.97
2023-03-21T14:17:20.965Z,4.45
2023-03-21T14:19:52.717Z,3.72
2023-03-21T14:22:19.093Z,4.15
2023-03-21T14:24:54.769Z,4.50
2023-03-21T14:27:22.084Z,4.00
2023-03-21T14:29:51.273Z,4.10
2023-03-21T14:32:22.499Z,4.18
2023-03-21T14:34:49.366Z,4.40
2023-03-21T14:37:28.416Z,4.20
2023-03-21T14:40:06.369Z,4.35
2023-03-21T14:42:38.120Z,4.20
2023-03-21T14:45:17.174Z,3.95
2023-03-21T14:48:01.796Z,3.70
2023-03-21T14:50:34.727Z,3.75
2023-03-21T14:53:01.359Z,4.15
2023-03-21T14:55:28.622Z,3.83
2023-03-21T14:57:56.445Z,4.10
2023-03-21T15:00:29.159Z,4.43
2023-03-21T15:02:59.073Z,3.80
2023-03-21T15:05:31.345Z,3.42
2023-03-21T15:08:06.904Z,3.75
2023-03-21T15:10:33.535Z,3.60
2023-03-21T15:13:02.935Z,4.10
2023-03-21T15:15:31.684Z,3.45
2023-03-21T15:18:03.698Z,3.53
2023-03-21T15:20:33.908Z,3.33
2023-03-21T15:23:17.471Z,3.47
2023-03-21T15:25:45.238Z,3.30
2023-03-21T15:28:14.334Z,3.17
2023-03-21T15:30:48.838Z,2.92
2023-03-21T15:33:15.778Z,3.50
2023-03-21T15:35:54.024Z,3.28
2023-03-21T15:38:41.081Z,3.22
2023-03-21T15:41:15.590Z,3.25
2023-03-21T15:43:42.211Z,2.90
2023-03-21T15:46:42.691Z,3.45
2023-03-21T15:49:13.044Z,2.83
2023-03-21T15:51:42.884Z,3.17
2023-03-21T15:54:15.200Z,3.30
2023-03-21T15:56:46.424Z,2.78
2023-03-21T15:59:17.978Z,3.25
2023-03-21T16:01:49.121Z,2.78
2023-03-21T16:04:18.347Z,3.28
2023-03-21T16:07:00.198Z,3.10
2023-03-21T16:09:26.941Z,2.90
2023-03-21T16:11:58.825Z,2.92
2023-03-21T16:14:29.850Z,2.83
2023-03-21T16:16:58.940Z,3.33
2023-03-21T16:19:27.613Z,2.92
2023-03-21T16:21:53.959Z,2.80
2023-03-21T16:24:20.263Z,2.70
2023-03-21T16:26:50.712Z,3.00
2023-03-21T16:29:18.516Z,3.38
2023-03-21T16:31:47.508Z,3.08
2023-03-21T16:34:13.866Z,2.80
2023-03-21T16:36:43.203Z,3.00
2023-03-21T16:39:25.276Z,2.85
2023-03-21T16:41:52.012Z,3.30
2023-03-21T16:44:19.544Z,2.97
2023-03-21T16:46:47.249Z,3.40
2023-03-21T16:49:24.803Z,3.28
2023-03-21T16:51:52.150Z,3.00
2023-03-21T16:54:18.569Z,3.22
2023-03-21T16:56:51.771Z,3.10
2023-03-21T16:59:18.368Z,3.00
2023-03-21T17:01:48.729Z,3.03
2023-03-21T17:04:17.691Z,3.30
2023-03-21T17:06:50.038Z,3.13
2023-03-21T17:09:19.671Z,3.38
2023-03-21T17:11:46.120Z,3.25
2023-03-21T17:14:14.122Z,3.20
2023-03-21T17:16:42.827Z,3.00
2023-03-21T17:19:15.344Z,3.08
2023-03-21T17:21:41.976Z,3.50
2023-03-21T17:24:08.817Z,3.45
2023-03-21T17:26:36.582Z,3.22
2023-03-21T17:29:03.918Z,3.28
2023-03-21T17:31:36.836Z,3.05
2023-03-21T17:34:04.562Z,3.05
2023-03-21T17:36:34.797Z,2.97
2023-03-21T17:39:06.943Z,3.47
2023-03-21T17:41:33.530Z,2.80
2023-03-21T17:44:00.246Z,3.08
2023-03-21T17:46:29.075Z,3.13
2023-03-21T17:48:56.091Z,2.92
2023-03-21T17:51:26.016Z,2.95
2023-03-21T17:53:52.536Z,2.97
2023-03-21T17:56:27.891Z,3.00
2023-03-21T17:58:54.501Z,2.85
2023-03-21T18:01:21.221Z,3.50
2023-03-21T18:03:47.680Z,3.50
2023-03-21T18:06:17.529Z,3.42
2023-03-21T18:08:45.302Z,3.33
2023-03-21T18:11:15.286Z,3.20
2023-03-21T18:13:45.419Z,3.47
2023-03-21T18:16:14.996Z,3.28
2023-03-21T18:18:41.652Z,3.05
2023-03-21T18:21:10.662Z,2.95
2023-03-21T18:23:38.397Z,2.97
2023-03-21T18:26:06.485Z,3.83
2023-03-21T18:28:33.115Z,3.67
2023-03-21T18:31:19.278Z,4.05
2023-03-21T18:36:16.790Z,3.53
2023-03-21T18:38:43.561Z,3.47
2023-03-21T18:41:10.477Z,3.50
2023-03-21T18:46:24.301Z,3.95
2023-03-21T18:48:51.771Z,3.83
2023-03-21T18:51:19.227Z,3.65
2023-03-21T18:53:45.803Z,3.53
2023-03-21T18:56:46.860Z,3.83
2023-03-21T18:58:59.286Z,3.53
2023-03-21T19:01:26.294Z,3.72
2023-03-21T19:04:16.476Z,3.85
2023-03-21T19:06:46.500Z,3.78
2023-03-21T19:09:14.467Z,4.25
2023-03-21T19:11:43.765Z,4.32
2023-03-21T19:14:11.547Z,3.90
2023-03-21T19:17:07.038Z,3.83
2023-03-21T19:19:27.100Z,4.18
2023-03-21T19:21:54.301Z,3.72
2023-03-21T19:24:27.641Z,4.03
2023-03-21T19:26:55.463Z,4.35
2023-03-21T19:29:22.100Z,4.13
2023-03-21T19:31:50.960Z,4.22
2023-03-21T19:34:18.683Z,4.13
2023-03-21T19:36:50.738Z,4.07
2023-03-21T19:39:21.898Z,3.88
2023-03-21T19:41:48.759Z,3.97
2023-03-21T19:44:15.363Z,3.97
2023-03-21T19:46:41.904Z,4.20
2023-03-21T19:49:08.236Z,4.40
2023-03-21T19:51:34.948Z,4.07
2023-03-21T19:54:04.354Z,4.28
2023-03-21T19:56:31.656Z,4.63
2023-03-21T19:58:58.754Z,4.43
2023-03-21T20:01:26.266Z,4.20
2023-03-21T20:03:53.121Z,4.45
2023-03-21T20:06:22.075Z,4.38
2023-03-21T20:14:03.002Z,3.92
2023-03-21T20:16:34.943Z,3.88
2023-03-21T20:19:03.015Z,4.88
2023-03-21T20:21:46.196Z,4.13
2023-03-21T20:26:45.036Z,4.25
2023-03-21T20:30:03.899Z,4.65
2023-03-21T20:31:58.444Z,5.05
2023-03-21T20:34:24.917Z,4.53
2023-03-21T20:36:51.442Z,5.05
2023-03-21T20:39:17.950Z,5.40
2023-03-21T20:41:44.327Z,5.13
2023-03-21T20:46:57.483Z,5.28
2023-03-21T20:49:24.291Z,5.30
2023-03-21T20:52:49.429Z,5.30
2023-03-21T20:54:37.871Z,5.22
2023-03-21T20:57:05.043Z,5.03
2023-03-21T20:59:31.583Z,5.43
2023-03-21T21:01:58.514Z,5.15
2023-03-21T21:04:46.742Z,5.72
2023-03-21T21:07:17.249Z,5.25
2023-03-21T21:09:45.264Z,5.00
2023-03-21T21:12:13.630Z,5.63
2023-03-21T21:14:41.003Z,5.85
2023-03-21T21:19:54.353Z,5.38
2023-03-21T21:22:20.891Z,6.07
2023-03-21T21:24:47.264Z,5.53
2023-03-21T21:27:13.848Z,5.18
2023-03-21T21:29:43.149Z,6.20
2023-03-21T21:32:09.746Z,5.50
2023-03-21T21:34:37.055Z,5.88
2023-03-21T21:37:03.676Z,5.53
2023-03-21T21:39:35.865Z,5.75
2023-03-21T21:42:02.515Z,5.70
2023-03-21T21:44:28.914Z,5.68
2023-03-21T21:46:55.556Z,6.00
2023-03-21T21:49:21.935Z,6.35
2023-03-21T21:51:48.343Z,6.18
2023-03-21T21:54:18.010Z,5.45
2023-03-21T21:56:48.224Z,5.22
2023-03-21T21:59:18.283Z,5.63
2023-03-21T22:01:46.524Z,5.47
2023-03-21T22:04:14.220Z,5.80
2023-03-21T22:06:42.326Z,5.63
2023-03-21T22:09:09.456Z,6.00
2023-03-21T22:11:36.408Z,5.55
2023-03-21T22:14:03.651Z,5.65
2023-03-21T22:16:30.274Z,5.47
2023-03-21T22:18:56.704Z,5.85
2023-03-21T22:21:23.427Z,5.88
2023-03-21T22:23:49.890Z,5.85
2023-03-21T22:26:16.600Z,5.68
2023-03-21T22:28:43.627Z,6.18
2023-03-21T22:31:13.432Z,6.43
2023-03-21T22:33:39.949Z,6.50
2023-03-21T22:36:06.774Z,6.32
2023-03-21T22:38:34.602Z,5.85
2023-03-21T22:41:03.897Z,6.40
2023-03-21T22:43:33.994Z,5.95
2023-03-21T22:46:02.426Z,6.30
2023-03-21T22:48:30.136Z,6.07
2023-03-21T22:50:57.774Z,5.82
2023-03-21T22:53:24.833Z,6.47
2023-03-21T22:55:51.466Z,5.78
2023-03-21T22:58:18.204Z,5.97
2023-03-21T23:00:44.652Z,5.40
2023-03-21T23:03:12.869Z,5.85
2023-03-21T23:05:41.069Z,6.38
2023-03-21T23:08:07.662Z,6.07
2023-03-21T23:10:36.745Z,6.00
2023-03-21T23:13:03.812Z,6.30
2023-03-21T23:15:30.264Z,6.13
2023-03-21T23:17:56.648Z,6.38
2023-03-21T23:20:23.005Z,5.63
2023-03-21T23:22:49.328Z,5.68
2023-03-21T23:25:15.670Z,5.75
2023-03-21T23:27:42.411Z,5.78
2023-03-21T23:30:09.037Z,6.07
2023-03-21T23:32:35.410Z,5.88
2023-03-21T23:35:01.779Z,5.75
2023-03-21T23:37:29.952Z,5.60
2023-03-21T23:39:56.533Z,6.18
2023-03-21T23:42:23.738Z,5.70
2023-03-21T23:44:50.482Z,6.35
2023-03-21T23:47:17.180Z,6.10
2023-03-21T23:49:49.154Z,5.78
2023-03-21T23:52:16.108Z,5.97
2023-03-21T23:54:42.439Z,5.22
2023-03-21T23:57:08.834Z,5.57
2023-03-21T23:59:35.240Z,6.28
